Time;durP1;ratioP1;P1;durP2;ratioP2;P2;SDS_P1;SDS_P2;PMS_P1;PMS_P2;Temp;Humidity;BMP_temperature;BMP_pressure;BME280_temperature;BME280_humidity;BME280_pressure;Samples;Min_cycle;Max_cycle;Signal;HPM_P1;HPM_P2
2023/09/11 00:01:35;;;;;;;13.63;7.30;;;23.00;99.90;;;;;;5082345;28;45166;-61
2023/09/11 00:04:02;;;;;;;7.22;5.75;;;23.00;99.90;;;;;;5083175;28;45200;-61
2023/09/11 00:06:29;;;;;;;8.20;6.35;;;23.00;99.90;;;;;;5085310;28;45101;-61
2023/09/11 00:09:00;;;;;;;8.98;6.72;;;23.00;99.90;;;;;;5086126;28;45206;-61
2023/09/11 00:11:26;;;;;;;10.00;5.20;;;23.00;99.90;;;;;;5084462;28;45225;-61
2023/09/11 00:13:53;;;;;;;12.00;6.20;;;23.00;99.90;;;;;;5083484;28;46247;-61
2023/09/11 00:16:20;;;;;;;9.10;5.57;;;23.00;99.90;;;;;;5084273;28;45149;-61
2023/09/11 00:18:47;;;;;;;19.98;5.78;;;23.00;99.90;;;;;;5082165;28;45118;-61
2023/09/11 00:21:13;;;;;;;9.35;6.75;;;23.00;99.90;;;;;;5076415;28;45372;-61
2023/09/11 00:23:40;;;;;;;8.90;6.43;;;23.00;99.90;;;;;;5079467;28;46209;-61
2023/09/11 00:26:08;;;;;;;7.60;5.53;;;23.00;99.90;;;;;;5081971;27;45114;-61
2023/09/11 00:28:35;;;;;;;11.82;6.90;;;23.00;99.90;;;;;;5079632;28;45068;-61
2023/09/11 00:31:02;;;;;;;9.70;6.43;;;23.00;99.90;;;;;;5073439;28;44978;-61
2023/09/11 00:33:29;;;;;;;12.85;8.38;;;23.00;99.90;;;;;;5078134;27;46219;-61
2023/09/11 00:35:55;;;;;;;13.07;8.95;;;23.00;99.90;;;;;;5081575;27;45235;-61
2023/09/11 00:38:22;;;;;;;14.85;7.97;;;22.90;99.90;;;;;;5076131;28;45054;-61
2023/09/11 00:40:49;;;;;;;19.35;8.40;;;22.90;99.90;;;;;;5076098;27;45514;-61
2023/09/11 00:43:17;;;;;;;13.45;6.68;;;22.90;99.90;;;;;;5077086;28;47932;-61
2023/09/11 00:45:44;;;;;;;11.02;6.43;;;22.90;99.90;;;;;;5070987;28;45285;-61
2023/09/11 00:48:13;;;;;;;12.23;7.70;;;22.90;99.90;;;;;;5079809;28;45259;-61
2023/09/11 00:50:40;;;;;;;11.40;7.13;;;22.90;99.90;;;;;;5082585;28;45115;-61
2023/09/11 00:53:08;;;;;;;14.55;7.35;;;23.00;99.90;;;;;;5080074;27;45190;-61
2023/09/11 00:55:35;;;;;;;12.13;7.03;;;22.90;99.90;;;;;;5081258;28;44675;-61
2023/09/11 00:58:02;;;;;;;11.57;7.10;;;22.90;99.90;;;;;;5079606;28;45126;-61
2023/09/11 01:00:30;;;;;;;10.90;7.10;;;22.90;99.90;;;;;;5084895;28;45051;-61
2023/09/11 01:02:58;;;;;;;11.20;6.78;;;22.90;99.90;;;;;;5082499;28;46498;-61
2023/09/11 01:05:28;;;;;;;12.80;7.45;;;22.90;99.90;;;;;;5073310;28;45939;-61
2023/09/11 01:07:55;;;;;;;9.57;6.88;;;23.00;99.90;;;;;;5083860;27;45051;-61
2023/09/11 01:10:22;;;;;;;10.80;7.47;;;22.90;99.90;;;;;;5073546;28;45142;-61
2023/09/11 01:12:49;;;;;;;10.30;7.85;;;23.00;99.90;;;;;;5082370;27;46353;-61
2023/09/11 01:15:16;;;;;;;12.82;8.32;;;22.90;99.90;;;;;;5073792;28;45345;-61
2023/09/11 01:17:51;;;;;;;13.20;8.85;;;22.90;99.90;;;;;;5081966;28;44599;-61
2023/09/11 01:20:58;;;;;;;14.70;8.90;;;22.90;99.90;;;;;;5066176;28;45224;-61
2023/09/11 01:23:50;;;;;;;14.93;9.65;;;22.90;99.90;;;;;;5055699;27;45334;-61
2023/09/11 01:26:39;;;;;;;13.75;10.20;;;22.90;99.90;;;;;;5079351;27;45177;-61
2023/09/11 01:29:11;;;;;;;14.98;10.73;;;22.80;99.90;;;;;;5076862;28;45048;-61
2023/09/11 01:31:38;;;;;;;18.55;11.05;;;22.80;99.90;;;;;;5072960;27;45561;-61
2023/09/11 01:34:06;;;;;;;18.70;11.20;;;22.70;99.90;;;;;;5073304;28;45145;-61
2023/09/11 01:36:33;;;;;;;19.63;11.07;;;22.70;99.90;;;;;;5082357;27;45254;-61
2023/09/11 01:39:01;;;;;;;16.30;10.13;;;22.70;99.90;;;;;;5077472;28;45217;-61
2023/09/11 01:41:33;;;;;;;17.73;9.70;;;22.70;99.90;;;;;;5078740;28;45268;-61
2023/09/11 01:44:06;;;;;;;15.13;10.43;;;22.70;99.90;;;;;;5079732;28;47997;-61
2023/09/11 01:46:34;;;;;;;10.93;8.27;;;22.80;99.90;;;;;;5078889;28;45163;-61
2023/09/11 01:49:02;;;;;;;11.02;8.48;;;22.80;99.90;;;;;;5081626;27;45341;-61
2023/09/11 01:51:31;;;;;;;10.57;7.40;;;22.80;99.90;;;;;;5074550;28;45269;-61
2023/09/11 01:53:59;;;;;;;14.93;9.02;;;22.90;99.90;;;;;;5073634;28;47010;-61
2023/09/11 01:56:26;;;;;;;16.50;9.40;;;22.90;99.90;;;;;;5078720;27;45150;-61
2023/09/11 01:58:56;;;;;;;17.75;9.63;;;22.80;99.90;;;;;;5078404;28;45279;-61
2023/09/11 02:01:23;;;;;;;12.35;8.55;;;22.80;99.90;;;;;;5076322;28;45316;-62
2023/09/11 02:03:51;;;;;;;11.82;8.65;;;22.80;99.90;;;;;;5076559;28;45348;-61
2023/09/11 02:06:18;;;;;;;10.07;7.57;;;22.90;99.90;;;;;;5073495;28;45147;-61
2023/09/11 02:08:44;;;;;;;10.90;7.70;;;22.90;99.90;;;;;;5083995;28;45125;-61
2023/09/11 02:11:11;;;;;;;11.23;6.80;;;23.00;99.90;;;;;;5079889;28;44664;-61
2023/09/11 02:13:38;;;;;;;8.60;7.13;;;23.00;99.90;;;;;;5076655;28;45335;-61
2023/09/11 02:16:05;;;;;;;14.38;9.10;;;23.00;99.90;;;;;;5070287;28;45481;-61
2023/09/11 02:18:32;;;;;;;10.32;6.43;;;23.00;99.90;;;;;;5081637;27;44597;-61
2023/09/11 02:21:00;;;;;;;11.43;6.78;;;22.90;99.90;;;;;;5080805;27;45163;-61
2023/09/11 02:23:26;;;;;;;9.60;6.97;;;22.90;99.90;;;;;;5082032;28;45257;-61
2023/09/11 02:25:53;;;;;;;9.80;7.38;;;23.00;99.90;;;;;;5081063;28;44688;-61
2023/09/11 02:28:20;;;;;;;11.35;7.57;;;23.00;99.90;;;;;;5082353;28;45242;-61
2023/09/11 02:30:47;;;;;;;16.10;8.95;;;23.00;99.90;;;;;;5077750;27;45160;-61
2023/09/11 02:33:14;;;;;;;14.30;8.85;;;22.90;99.90;;;;;;5081396;27;46390;-62
2023/09/11 02:35:41;;;;;;;9.15;6.55;;;22.90;99.90;;;;;;5075585;28;45239;-62
2023/09/11 02:38:09;;;;;;;9.43;6.18;;;23.00;99.90;;;;;;5083837;27;44603;-62
2023/09/11 02:40:36;;;;;;;7.15;6.10;;;23.00;99.90;;;;;;5080841;28;45207;-62
2023/09/11 02:43:04;;;;;;;10.95;7.32;;;23.00;99.90;;;;;;5083415;27;46567;-62
2023/09/11 02:45:30;;;;;;;9.73;7.72;;;23.00;99.90;;;;;;5080111;28;45142;-62
2023/09/11 02:47:57;;;;;;;11.93;7.10;;;23.00;99.90;;;;;;5082091;28;45412;-62
2023/09/11 02:50:24;;;;;;;8.95;6.82;;;23.00;99.90;;;;;;5080970;28;45291;-62
2023/09/11 02:52:50;;;;;;;8.20;6.18;;;23.00;99.90;;;;;;5074298;28;46414;-61
2023/09/11 02:55:19;;;;;;;12.18;9.23;;;23.00;99.90;;;;;;5078155;27;45146;-62
2023/09/11 02:57:45;;;;;;;20.50;9.57;;;23.00;99.90;;;;;;5075560;28;45383;-62
2023/09/11 03:00:13;;;;;;;9.82;7.05;;;23.00;99.90;;;;;;5081400;28;45496;-61
2023/09/11 03:02:40;;;;;;;14.50;7.75;;;22.90;99.90;;;;;;5073356;28;45275;-62
2023/09/11 03:05:07;;;;;;;10.60;8.18;;;22.80;99.90;;;;;;5079851;28;45752;-61
2023/09/11 03:07:34;;;;;;;13.63;8.95;;;22.80;99.90;;;;;;5077671;28;45209;-62
2023/09/11 03:10:03;;;;;;;12.82;7.35;;;22.80;99.90;;;;;;5080555;28;45276;-61
2023/09/11 03:12:31;;;;;;;16.00;9.85;;;22.80;99.90;;;;;;5068879;28;47004;-61
2023/09/11 03:15:03;;;;;;;10.52;6.95;;;22.80;99.90;;;;;;5079723;28;45062;-61
2023/09/11 03:17:30;;;;;;;16.58;7.95;;;22.70;99.90;;;;;;5078157;28;44633;-61
2023/09/11 03:19:58;;;;;;;12.02;8.13;;;22.70;99.90;;;;;;5074207;28;45250;-61
2023/09/11 03:22:24;;;;;;;12.20;8.43;;;22.70;99.90;;;;;;5080968;28;45254;-61
2023/09/11 03:24:51;;;;;;;9.88;6.50;;;22.70;99.90;;;;;;5077408;27;44675;-61
2023/09/11 03:27:18;;;;;;;11.82;6.88;;;22.70;99.90;;;;;;5077227;28;45252;-61
2023/09/11 03:29:46;;;;;;;10.80;7.85;;;22.80;99.90;;;;;;5072664;27;45099;-61
2023/09/11 03:32:13;;;;;;;13.35;7.05;;;22.90;99.90;;;;;;5077813;27;46323;-61
2023/09/11 03:34:40;;;;;;;9.77;7.40;;;22.80;99.90;;;;;;5079090;27;45451;-61
2023/09/11 03:37:06;;;;;;;9.65;7.57;;;22.90;99.90;;;;;;5075532;28;45142;-61
2023/09/11 03:39:33;;;;;;;9.85;6.78;;;22.90;99.90;;;;;;5079306;28;45189;-61
2023/09/11 03:42:00;;;;;;;7.45;6.50;;;22.90;99.90;;;;;;5078307;27;45215;-61
2023/09/11 03:44:27;;;;;;;10.70;6.57;;;23.00;99.90;;;;;;5080127;28;45691;-61
2023/09/11 03:46:55;;;;;;;11.98;8.50;;;22.90;99.90;;;;;;5078462;27;45150;-61
2023/09/11 03:49:22;;;;;;;13.45;7.85;;;22.90;99.90;;;;;;5076730;28;45095;-61
2023/09/11 03:51:48;;;;;;;11.38;8.25;;;22.90;99.90;;;;;;5090717;27;46054;-61
2023/09/11 03:54:15;;;;;;;15.20;9.23;;;22.80;99.90;;;;;;5081281;27;45198;-61
2023/09/11 03:56:42;;;;;;;14.70;9.43;;;22.70;99.90;;;;;;5079626;27;44610;-61
2023/09/11 03:59:09;;;;;;;16.77;9.13;;;22.60;99.90;;;;;;5082602;28;45238;-61
2023/09/11 04:01:35;;;;;;;12.38;8.75;;;22.40;99.90;;;;;;5081629;27;45276;-61
2023/09/11 04:04:04;;;;;;;22.52;11.02;;;22.50;99.90;;;;;;5081587;28;45182;-61
2023/09/11 04:06:31;;;;;;;14.77;8.45;;;22.40;99.90;;;;;;5078587;28;45230;-61
2023/09/11 04:08:57;;;;;;;18.52;9.25;;;22.30;99.90;;;;;;5084679;28;45090;-62
2023/09/11 04:11:24;;;;;;;12.52;7.95;;;22.30;99.90;;;;;;5079413;28;45249;-62
2023/09/11 04:13:51;;;;;;;16.75;9.10;;;22.30;99.90;;;;;;5085443;28;44609;-62
2023/09/11 04:16:20;;;;;;;14.57;8.85;;;22.30;99.90;;;;;;5080325;28;45055;-63
2023/09/11 04:18:47;;;;;;;14.45;9.07;;;22.30;99.90;;;;;;5084461;28;44761;-63
2023/09/11 04:21:16;;;;;;;10.95;8.10;;;22.30;99.90;;;;;;5082735;27;46537;-62
2023/09/11 04:23:43;;;;;;;21.67;10.45;;;22.30;99.90;;;;;;5082678;27;45276;-62
2023/09/11 04:26:09;;;;;;;13.77;9.02;;;22.20;99.90;;;;;;5081203;28;45212;-63
2023/09/11 04:28:37;;;;;;;15.07;8.13;;;22.20;99.90;;;;;;5082079;27;45117;-63
2023/09/11 04:31:04;;;;;;;15.02;8.35;;;22.20;99.90;;;;;;5078846;27;45154;-63
2023/09/11 04:33:30;;;;;;;12.15;8.32;;;22.30;99.90;;;;;;5083573;28;45273;-62
2023/09/11 04:35:57;;;;;;;14.70;8.07;;;22.20;99.90;;;;;;5086051;27;45141;-63
2023/09/11 04:38:25;;;;;;;14.75;8.20;;;22.30;99.90;;;;;;5083174;28;45134;-63
2023/09/11 04:40:57;;;;;;;12.05;8.85;;;22.30;99.90;;;;;;5082399;28;47185;-63
2023/09/11 04:43:24;;;;;;;16.02;8.88;;;22.40;99.90;;;;;;5073199;28;45133;-62
2023/09/11 04:45:50;;;;;;;10.95;7.55;;;22.30;99.90;;;;;;5078687;28;45267;-62
2023/09/11 04:48:17;;;;;;;15.85;8.95;;;22.40;99.90;;;;;;5079732;28;45151;-63
2023/09/11 04:50:44;;;;;;;12.88;7.15;;;22.80;99.90;;;;;;5078817;27;45197;-61
2023/09/11 04:53:11;;;;;;;9.88;7.13;;;23.00;99.90;;;;;;5076340;28;45158;-62
2023/09/11 04:55:39;;;;;;;11.00;6.97;;;23.10;99.90;;;;;;5078055;28;45169;-63
2023/09/11 04:58:06;;;;;;;11.05;6.78;;;23.10;99.90;;;;;;5080744;28;45290;-62
2023/09/11 05:00:32;;;;;;;8.50;6.35;;;23.10;99.90;;;;;;5071788;27;45206;-63
2023/09/11 05:02:59;;;;;;;13.05;6.60;;;23.00;99.90;;;;;;5079676;28;45055;-63
2023/09/11 05:05:26;;;;;;;10.88;6.50;;;23.00;99.90;;;;;;5073440;28;45136;-60
2023/09/11 05:07:53;;;;;;;11.73;6.88;;;22.90;99.90;;;;;;5084124;28;45257;-61
2023/09/11 05:10:20;;;;;;;14.10;7.13;;;22.80;99.90;;;;;;5070988;27;44985;-59
2023/09/11 05:12:48;;;;;;;17.45;7.35;;;22.60;99.90;;;;;;5081019;28;45031;-61
2023/09/11 05:15:15;;;;;;;12.45;6.95;;;22.50;99.90;;;;;;5081962;28;45051;-62
2023/09/11 05:17:42;;;;;;;12.48;6.45;;;22.30;99.90;;;;;;5072425;28;44751;-63
2023/09/11 05:20:10;;;;;;;12.60;6.60;;;22.60;99.90;;;;;;5080225;27;46095;-63
2023/09/11 05:22:37;;;;;;;11.88;6.50;;;22.80;99.90;;;;;;5074736;28;44744;-62
2023/09/11 05:25:04;;;;;;;12.68;7.07;;;22.70;99.90;;;;;;5076821;27;44619;-62
2023/09/11 05:27:30;;;;;;;13.60;6.95;;;22.70;99.90;;;;;;5078154;27;44662;-62
2023/09/11 05:29:58;;;;;;;10.43;6.65;;;22.60;99.90;;;;;;5074848;27;45476;-63
2023/09/11 05:32:26;;;;;;;15.68;7.57;;;22.50;99.90;;;;;;5067138;28;45275;-64
2023/09/11 05:34:53;;;;;;;10.38;6.50;;;22.50;99.90;;;;;;5079198;28;45110;-63
2023/09/11 05:37:19;;;;;;;17.60;6.53;;;22.50;99.90;;;;;;5076014;28;44787;-63
2023/09/11 05:39:47;;;;;;;11.40;6.75;;;22.40;99.90;;;;;;5080173;28;45134;-63
2023/09/11 05:42:14;;;;;;;12.48;5.85;;;22.40;99.90;;;;;;5072649;27;45068;-63
2023/09/11 05:44:41;;;;;;;10.75;5.68;;;22.30;99.90;;;;;;5073873;28;44757;-63
2023/09/11 05:47:09;;;;;;;11.48;6.82;;;22.40;99.90;;;;;;5079656;28;45325;-63
2023/09/11 05:49:36;;;;;;;12.60;6.40;;;22.30;99.90;;;;;;5076829;28;45209;-63
2023/09/11 05:52:03;;;;;;;12.98;6.78;;;22.30;99.90;;;;;;5069880;27;45210;-63
2023/09/11 05:54:30;;;;;;;6.95;5.25;;;22.30;99.90;;;;;;5075574;27;45335;-63
2023/09/11 05:56:56;;;;;;;9.35;5.35;;;22.50;99.90;;;;;;5078180;28;45184;-63
2023/09/11 05:59:23;;;;;;;8.35;4.93;;;22.70;99.90;;;;;;5084296;28;47294;-63
2023/09/11 06:01:50;;;;;;;8.05;5.53;;;22.80;99.90;;;;;;5071941;28;45290;-62
2023/09/11 06:04:18;;;;;;;9.85;5.38;;;22.80;99.90;;;;;;5067480;28;44690;-63
2023/09/11 06:06:45;;;;;;;7.70;4.82;;;22.80;99.90;;;;;;5071136;28;45131;-62
2023/09/11 06:09:12;;;;;;;5.82;4.60;;;22.90;99.90;;;;;;5073793;27;46242;-62
2023/09/11 06:11:39;;;;;;;6.75;4.25;;;22.90;99.90;;;;;;5080618;28;45284;-63
2023/09/11 06:14:07;;;;;;;9.85;6.18;;;22.90;99.90;;;;;;5080398;28;45256;-63
2023/09/11 06:16:34;;;;;;;9.55;4.40;;;22.90;99.90;;;;;;5077181;27;45220;-63
2023/09/11 06:19:01;;;;;;;7.65;4.63;;;22.90;99.90;;;;;;5074525;27;45082;-63
2023/09/11 06:21:29;;;;;;;6.97;5.10;;;23.00;99.90;;;;;;5076503;27;45190;-64
2023/09/11 06:23:56;;;;;;;10.40;4.72;;;23.00;99.90;;;;;;5076577;28;45425;-64
2023/09/11 06:26:23;;;;;;;8.15;5.07;;;23.00;99.90;;;;;;5080065;28;44694;-64
2023/09/11 06:28:50;;;;;;;13.60;5.97;;;22.90;99.90;;;;;;5080769;27;47017;-63
2023/09/11 06:31:18;;;;;;;6.25;4.80;;;22.90;99.90;;;;;;5069746;28;45255;-63
2023/09/11 06:33:45;;;;;;;5.90;4.25;;;22.80;99.90;;;;;;5067325;28;45066;-63
2023/09/11 06:36:13;;;;;;;6.88;4.47;;;22.90;99.90;;;;;;5074860;28;45323;-63
2023/09/11 06:38:41;;;;;;;6.93;4.30;;;22.90;99.90;;;;;;5071916;28;46165;-63
2023/09/11 06:41:07;;;;;;;7.22;4.22;;;23.00;99.90;;;;;;5075421;28;45192;-63
2023/09/11 06:43:34;;;;;;;6.00;4.38;;;23.00;99.90;;;;;;5076972;28;45246;-62
2023/09/11 06:46:01;;;;;;;6.68;4.93;;;23.00;99.90;;;;;;5079224;28;45131;-63
2023/09/11 06:48:28;;;;;;;10.88;6.07;;;22.90;99.90;;;;;;5079207;28;47054;-63
2023/09/11 06:50:55;;;;;;;5.93;4.78;;;22.90;99.90;;;;;;5078937;28;45201;-63
2023/09/11 06:53:22;;;;;;;9.90;4.22;;;22.90;99.90;;;;;;5070000;28;45353;-64
2023/09/11 06:55:51;;;;;;;6.38;3.88;;;23.00;99.90;;;;;;5076662;28;45252;-64
2023/09/11 06:58:17;;;;;;;4.80;3.97;;;23.00;99.90;;;;;;5081484;28;45281;-64
2023/09/11 07:00:44;;;;;;;8.10;4.40;;;23.00;99.90;;;;;;5074520;27;45103;-64
2023/09/11 07:03:11;;;;;;;8.93;4.38;;;23.10;99.90;;;;;;5079841;27;45177;-63
2023/09/11 07:05:39;;;;;;;5.45;3.90;;;23.10;99.90;;;;;;5070227;28;45060;-63
2023/09/11 07:08:06;;;;;;;7.43;4.43;;;23.10;99.90;;;;;;5074080;28;45138;-63
2023/09/11 07:10:33;;;;;;;4.18;3.42;;;23.10;99.90;;;;;;5074744;28;45105;-63
2023/09/11 07:13:01;;;;;;;6.28;4.22;;;23.20;99.90;;;;;;5084698;28;45074;-63
2023/09/11 07:15:28;;;;;;;6.22;4.13;;;23.20;99.90;;;;;;5076368;28;44718;-63
2023/09/11 07:17:54;;;;;;;5.50;4.13;;;23.20;99.90;;;;;;5084902;28;46459;-63
2023/09/11 07:20:22;;;;;;;5.03;3.55;;;23.20;99.90;;;;;;5079389;27;45116;-63
2023/09/11 07:22:49;;;;;;;7.95;4.68;;;23.20;99.90;;;;;;5083910;28;45246;-63
2023/09/11 07:25:18;;;;;;;7.22;4.35;;;23.20;99.90;;;;;;5074296;28;44663;-63
2023/09/11 07:27:44;;;;;;;5.00;3.50;;;23.20;99.90;;;;;;5084847;27;46266;-63
2023/09/11 07:30:13;;;;;;;4.82;3.72;;;23.20;99.90;;;;;;5084911;28;45123;-63
2023/09/11 07:32:40;;;;;;;10.25;5.18;;;23.20;99.90;;;;;;5084571;28;45244;-63
2023/09/11 07:35:07;;;;;;;8.20;5.93;;;23.10;99.90;;;;;;5071697;28;45261;-63
2023/09/11 07:37:34;;;;;;;5.63;4.18;;;23.10;99.90;;;;;;5076945;27;46196;-63
2023/09/11 07:40:02;;;;;;;5.50;4.30;;;23.10;99.90;;;;;;5082479;28;45077;-63
2023/09/11 07:42:28;;;;;;;5.00;3.50;;;23.10;99.90;;;;;;5074730;28;45179;-63
2023/09/11 07:44:55;;;;;;;6.07;4.13;;;23.20;99.90;;;;;;5082366;28;45239;-63
2023/09/11 07:47:23;;;;;;;7.40;4.38;;;23.20;99.90;;;;;;5084393;27;45187;-63
2023/09/11 07:49:50;;;;;;;7.30;4.00;;;23.20;99.90;;;;;;5080136;28;45169;-63
2023/09/11 07:52:17;;;;;;;7.93;3.72;;;23.10;99.90;;;;;;5086883;28;45186;-63
2023/09/11 07:54:44;;;;;;;8.20;4.93;;;23.10;99.90;;;;;;5078598;27;45165;-63
2023/09/11 07:57:12;;;;;;;8.23;4.28;;;23.10;99.90;;;;;;5081273;28;45196;-63
2023/09/11 07:59:39;;;;;;;10.82;4.90;;;23.10;99.90;;;;;;5082795;28;45157;-63
2023/09/11 08:02:06;;;;;;;7.25;4.68;;;23.10;99.90;;;;;;5082293;28;45167;-63
2023/09/11 08:04:35;;;;;;;12.38;5.35;;;23.10;99.90;;;;;;5085816;28;45229;-63
2023/09/11 08:07:02;;;;;;;7.20;4.43;;;23.10;99.90;;;;;;5068835;28;45411;-63
2023/09/11 08:09:29;;;;;;;13.32;5.68;;;23.10;99.90;;;;;;5080314;27;45126;-63
2023/09/11 08:11:56;;;;;;;13.75;5.13;;;23.00;99.90;;;;;;5069100;28;45166;-63
2023/09/11 08:14:23;;;;;;;6.78;3.80;;;23.10;99.90;;;;;;5068676;28;45147;-63
2023/09/11 08:16:50;;;;;;;11.65;5.13;;;23.10;99.90;;;;;;5070968;28;47323;-63
2023/09/11 08:19:17;;;;;;;6.82;4.05;;;23.10;99.90;;;;;;5080961;28;45232;-63
2023/09/11 08:21:45;;;;;;;6.07;4.20;;;23.10;99.90;;;;;;5075041;27;45226;-63
2023/09/11 08:24:13;;;;;;;13.93;5.53;;;23.10;99.90;;;;;;5085860;27;45244;-60
2023/09/11 08:26:39;;;;;;;8.48;4.45;;;23.10;99.90;;;;;;5082553;28;45171;-62
2023/09/11 08:29:10;;;;;;;11.00;5.57;;;23.10;99.90;;;;;;5080926;28;45325;-63
2023/09/11 08:31:37;;;;;;;6.65;4.45;;;23.00;99.90;;;;;;5069463;28;45197;-63
2023/09/11 08:34:04;;;;;;;8.55;4.05;;;23.00;99.90;;;;;;5076643;28;45312;-64
2023/09/11 08:36:31;;;;;;;12.32;4.90;;;23.10;99.90;;;;;;5067270;28;45204;-64
2023/09/11 08:38:59;;;;;;;12.70;5.15;;;23.10;99.90;;;;;;5081398;28;45079;-64
2023/09/11 08:41:27;;;;;;;11.52;4.60;;;23.10;99.90;;;;;;5079272;28;44583;-64
2023/09/11 08:43:54;;;;;;;9.63;5.03;;;23.10;99.90;;;;;;5077489;28;45288;-64
2023/09/11 08:46:23;;;;;;;9.35;4.30;;;23.10;99.90;;;;;;5077868;28;45436;-63
2023/09/11 08:48:55;;;;;;;7.70;4.55;;;23.10;99.90;;;;;;5079861;28;45131;-63
2023/09/11 08:51:25;;;;;;;15.68;5.30;;;23.10;99.90;;;;;;5069807;28;45212;-63
2023/09/11 08:53:53;;;;;;;10.23;5.05;;;23.10;99.90;;;;;;5073299;27;45044;-63
2023/09/11 08:56:21;;;;;;;10.88;4.85;;;23.20;99.90;;;;;;5064786;28;46718;-63
2023/09/11 08:58:51;;;;;;;8.23;4.07;;;23.20;99.90;;;;;;5072665;28;44616;-63
2023/09/11 09:01:18;;;;;;;10.18;4.55;;;23.20;99.90;;;;;;5082384;28;45189;-63
2023/09/11 09:03:46;;;;;;;13.45;5.82;;;23.20;99.90;;;;;;5071823;28;45140;-63
2023/09/11 09:06:14;;;;;;;6.15;3.90;;;23.20;99.90;;;;;;5076528;28;45139;-63
2023/09/11 09:08:41;;;;;;;10.27;5.40;;;23.20;99.90;;;;;;5084851;28;45052;-63
2023/09/11 09:11:08;;;;;;;12.25;5.25;;;23.20;99.90;;;;;;5071311;28;45150;-63
2023/09/11 09:13:37;;;;;;;12.30;4.60;;;23.20;99.90;;;;;;5080955;28;45301;-63
2023/09/11 09:16:04;;;;;;;8.70;4.18;;;23.20;99.90;;;;;;5073298;28;47314;-64
2023/09/11 09:18:31;;;;;;;6.13;3.88;;;23.10;99.90;;;;;;5072873;28;45966;-64
2023/09/11 09:20:58;;;;;;;3.88;3.47;;;23.20;99.90;;;;;;5082305;28;45183;-64
2023/09/11 09:23:35;;;;;;;11.68;4.28;;;23.10;99.90;;;;;;5078973;27;45199;-64
2023/09/11 09:26:06;;;;;;;6.82;3.75;;;23.20;99.90;;;;;;5079473;27;45412;-64
2023/09/11 09:28:34;;;;;;;4.72;3.83;;;23.20;99.90;;;;;;5075967;27;45195;-64
2023/09/11 09:31:02;;;;;;;15.65;5.38;;;23.20;99.90;;;;;;5080215;27;45219;-64
2023/09/11 09:33:30;;;;;;;9.23;4.32;;;23.20;99.90;;;;;;5070998;28;45161;-63
2023/09/11 09:35:57;;;;;;;5.78;3.35;;;23.20;99.90;;;;;;5074858;28;46106;-63
2023/09/11 09:38:27;;;;;;;10.80;4.30;;;23.20;99.90;;;;;;5068249;28;44607;-62
2023/09/11 09:40:55;;;;;;;10.88;4.45;;;23.30;99.90;;;;;;5082485;28;45252;-62
2023/09/11 09:43:22;;;;;;;7.97;4.00;;;23.30;99.90;;;;;;5075151;27;45252;-63
2023/09/11 09:45:49;;;;;;;10.20;4.78;;;23.30;99.90;;;;;;5075779;27;45050;-62
2023/09/11 09:48:19;;;;;;;14.20;4.70;;;23.20;99.90;;;;;;5075689;28;45227;-62
2023/09/11 09:51:01;;;;;;;6.35;3.60;;;23.30;99.90;;;;;;5077310;28;45133;-62
2023/09/11 09:53:30;;;;;;;5.00;3.70;;;23.30;99.90;;;;;;5073992;28;45334;-62
2023/09/11 09:56:03;;;;;;;13.52;5.38;;;23.30;99.90;;;;;;5079638;27;46401;-62
2023/09/11 09:58:33;;;;;;;7.78;3.80;;;23.20;99.90;;;;;;5080645;28;45157;-62
2023/09/11 10:01:02;;;;;;;7.68;3.60;;;23.30;99.90;;;;;;5070140;27;45073;-62
2023/09/11 10:03:41;;;;;;;6.10;3.25;;;23.30;99.90;;;;;;5071460;28;44639;-62
2023/09/11 10:06:09;;;;;;;10.10;3.30;;;23.30;99.90;;;;;;5072076;28;45190;-62
2023/09/11 10:08:36;;;;;;;4.82;3.33;;;23.30;99.90;;;;;;5072670;28;45191;-62
2023/09/11 10:11:03;;;;;;;11.93;4.63;;;23.30;99.90;;;;;;5076446;27;44619;-62
2023/09/11 10:13:32;;;;;;;17.45;5.32;;;23.30;99.90;;;;;;5076626;28;45138;-62
2023/09/11 10:15:59;;;;;;;20.30;4.80;;;23.50;99.90;;;;;;5067360;28;45099;-59
2023/09/11 10:18:26;;;;;;;20.30;4.93;;;23.50;99.90;;;;;;5075797;28;45132;-62
2023/09/11 10:20:54;;;;;;;9.55;3.92;;;23.60;99.90;;;;;;5075802;27;45149;-62
2023/09/11 10:23:21;;;;;;;10.65;4.25;;;23.60;99.90;;;;;;5071259;27;45267;-62
2023/09/11 10:25:54;;;;;;;18.27;5.00;;;23.50;99.90;;;;;;5073695;28;45343;-62
2023/09/11 10:28:28;;;;;;;16.60;5.10;;;23.60;99.90;;;;;;5072841;28;45196;-62
2023/09/11 10:31:03;;;;;;;17.35;5.38;;;23.60;99.90;;;;;;5078999;28;45189;-62
2023/09/11 10:33:31;;;;;;;12.38;4.13;;;23.80;99.90;;;;;;5074437;28;45186;-62
2023/09/11 10:36:05;;;;;;;7.80;3.85;;;23.70;99.90;;;;;;5075833;28;46356;-62
2023/09/11 10:38:34;;;;;;;15.02;5.35;;;23.60;99.90;;;;;;5076900;28;45228;-62
2023/09/11 10:41:02;;;;;;;10.27;4.78;;;23.60;99.90;;;;;;5082297;27;45062;-62
2023/09/11 10:43:29;;;;;;;16.80;5.32;;;23.90;99.90;;;;;;5086649;27;45347;-62
2023/09/11 10:45:56;;;;;;;13.55;5.13;;;24.00;99.60;;;;;;5078770;28;46330;-62
2023/09/11 10:48:28;;;;;;;13.82;4.55;;;24.10;99.90;;;;;;5085794;27;45188;-62
2023/09/11 10:50:56;;;;;;;10.88;4.53;;;24.00;99.90;;;;;;5085678;27;45296;-62
2023/09/11 10:53:28;;;;;;;9.50;3.97;;;23.90;99.90;;;;;;5087120;28;45104;-62
2023/09/11 10:55:56;;;;;;;7.88;3.90;;;23.70;99.90;;;;;;5080902;28;45190;-62
2023/09/11 10:58:23;;;;;;;6.88;3.75;;;23.70;99.90;;;;;;5081795;28;45158;-61
2023/09/11 11:00:53;;;;;;;8.32;4.00;;;23.60;99.90;;;;;;5079623;28;45241;-61
2023/09/11 11:03:20;;;;;;;8.60;4.35;;;23.70;99.90;;;;;;5085109;27;45399;-61
2023/09/11 11:05:47;;;;;;;18.23;5.30;;;23.70;99.90;;;;;;5078539;27;47338;-62
2023/09/11 11:08:16;;;;;;;13.95;5.03;;;23.70;99.90;;;;;;5078902;28;45161;-61
2023/09/11 11:10:47;;;;;;;8.77;3.60;;;23.70;99.90;;;;;;5079020;28;45232;-62
2023/09/11 11:13:14;;;;;;;17.00;5.15;;;23.70;99.90;;;;;;5081281;28;45090;-62
2023/09/11 11:15:41;;;;;;;7.63;4.25;;;23.80;99.90;;;;;;5077715;28;45197;-61
2023/09/11 11:18:10;;;;;;;19.92;5.13;;;23.80;99.90;;;;;;5079524;28;45100;-62
2023/09/11 11:20:37;;;;;;;11.02;3.92;;;23.70;99.90;;;;;;5082052;28;45258;-62
2023/09/11 11:23:09;;;;;;;13.52;4.78;;;23.80;99.90;;;;;;5077475;27;45115;-62
2023/09/11 11:25:36;;;;;;;14.65;4.53;;;23.80;99.90;;;;;;5079849;28;46339;-61
2023/09/11 11:28:17;;;;;;;8.23;4.32;;;23.90;99.90;;;;;;5079494;28;45187;-62
2023/09/11 11:30:45;;;;;;;13.90;4.45;;;24.10;99.90;;;;;;5075950;28;45541;-63
2023/09/11 11:33:15;;;;;;;13.68;5.20;;;24.10;99.90;;;;;;5078402;28;45235;-63
2023/09/11 11:35:45;;;;;;;18.55;4.75;;;24.20;99.90;;;;;;5083169;28;45427;-63
2023/09/11 11:38:15;;;;;;;21.55;5.10;;;24.30;99.00;;;;;;5080332;27;46053;-63
2023/09/11 11:40:42;;;;;;;13.82;4.50;;;24.40;99.10;;;;;;5080466;27;45144;-64
2023/09/11 11:43:09;;;;;;;8.38;3.97;;;24.30;99.90;;;;;;5083414;27;45200;-65
2023/09/11 11:45:42;;;;;;;9.38;4.20;;;24.30;99.90;;;;;;5084236;28;45180;-66
2023/09/11 11:48:11;;;;;;;13.63;3.95;;;24.40;99.90;;;;;;5073162;28;45229;-64
2023/09/11 11:50:42;;;;;;;12.55;4.57;;;24.30;99.90;;;;;;5079752;28;45293;-65
2023/09/11 11:53:09;;;;;;;8.20;3.92;;;24.20;99.90;;;;;;5083428;27;44704;-65
2023/09/11 11:55:36;;;;;;;8.20;3.97;;;24.20;99.90;;;;;;5080027;28;46286;-65
2023/09/11 11:58:08;;;;;;;12.40;4.07;;;24.40;99.90;;;;;;5082396;28;45075;-66
2023/09/11 12:00:35;;;;;;;5.85;3.35;;;24.30;98.40;;;;;;5083124;27;44652;-64
2023/09/11 12:03:08;;;;;;;4.45;2.95;;;24.20;99.90;;;;;;5080720;28;44729;-64
2023/09/11 12:05:35;;;;;;;5.80;3.08;;;24.10;99.90;;;;;;5075617;28;45385;-64
2023/09/11 12:08:03;;;;;;;10.40;4.03;;;23.90;99.90;;;;;;5082376;28;45086;-65
2023/09/11 12:10:31;;;;;;;13.18;4.38;;;23.90;99.90;;;;;;5079862;28;45141;-65
2023/09/11 12:12:58;;;;;;;6.10;3.97;;;24.00;99.90;;;;;;5081936;28;45181;-66
2023/09/11 12:15:25;;;;;;;6.00;3.67;;;23.90;99.90;;;;;;5074386;28;48763;-65
2023/09/11 12:17:52;;;;;;;10.27;4.75;;;23.80;99.90;;;;;;5077268;27;45494;-65
2023/09/11 12:20:22;;;;;;;14.35;4.43;;;23.80;99.90;;;;;;5076185;28;45143;-66
2023/09/11 12:22:49;;;;;;;15.25;4.53;;;24.00;99.90;;;;;;5082223;27;45248;-65
2023/09/11 12:25:17;;;;;;;14.15;4.60;;;24.10;99.90;;;;;;5076388;28;45281;-64
2023/09/11 12:27:44;;;;;;;17.75;5.30;;;24.10;99.90;;;;;;5079439;27;45165;-63
2023/09/11 12:30:12;;;;;;;12.50;4.32;;;24.10;99.90;;;;;;5081018;27;45039;-64
2023/09/11 12:32:39;;;;;;;14.48;4.22;;;24.20;99.90;;;;;;5080368;28;45134;-66
2023/09/11 12:35:07;;;;;;;8.57;4.05;;;24.30;99.90;;;;;;5081695;28;47970;-66
2023/09/11 12:37:38;;;;;;;14.75;4.20;;;24.30;99.90;;;;;;5076848;28;45286;-66
2023/09/11 12:40:08;;;;;;;11.75;3.60;;;24.20;99.90;;;;;;5082761;28;45217;-65
2023/09/11 12:42:36;;;;;;;6.60;3.88;;;24.30;99.90;;;;;;5072688;28;45466;-65
2023/09/11 12:45:04;;;;;;;12.38;4.53;;;24.40;99.90;;;;;;5078994;27;47025;-64